INFORMACIÓN METAR y TAF
METAR FOR SKPS
ADDS - METARS form results

(2233 UTC 13 August 2022)
Data provider http://aviationweather.gov/metar/data/
 
METAR text: SKPS 132200Z 00000KT 9999 BKN023 20/16 Q1020 RMK A3013
Conditions at: SKPS (PASTO/ANTONIO NA, CO) observed 2200 UTC 13 August 2022
Temperature: 20.0°C (68°F)
Dewpoint: 16.0°C (61°F) [RH = 78%]
Pressure (altimeter): 30.12 inches Hg (1020.0 mb)
Winds: calm
Visibility: 6 or more miles (10+ km)
Ceiling: 2300 feet AGL
Clouds: broken clouds at 2300 feet AGL
Weather: no significant weather observed at this time

 MAPA DE AEROPUERTO

 INFORMACIÓN DE PISTA